Westerly, RI

12:03 PM EST on December 04, 2016 (GMT -0500)
Westerly State | | Change Station

Elev 79 ft 41.35 °N, 71.81 °W | Updated 10 minutes ago

Clear
Clear
41 °F
Feels Like 36 °F
N
8
Wind Variable Wind from NNW

Today
High -- | Low -- °F
--% Chance of Precip.
Yesterday
High -- | Low -- °F
Precip. -- in
Pressure 30.18 in
Visibility 10.0 miles
Clouds Clear
Windchill 36 °F
Dew Point 19 °F
Humidity 41%
Rainfall 0.00 in
Snow Depth Not available.
6:57 AM 4:17 PM
Waxing Crescent, 24% visible
METAR KWST 041653Z AUTO 34007KT 290V360 10SM CLR 05/M07 A3018 RMK AO2 SLP220 T00501072 TSNO
Pressure 30.18 in
Visibility 10.0 miles
Clouds Clear
Windchill 36 °F
Dew Point 19 °F
Humidity 41%
Rainfall 0.00 in
Snow Depth Not available.
6:57 AM 4:17 PM
Waxing Crescent, 24% visible
METAR KWST 041653Z AUTO 34007KT 290V360 10SM CLR 05/M07 A3018 RMK AO2 SLP220 T00501072 TSNO

10-Day Weather Forecast

Almanac

Astronomy

Dec. 04, 2016 Rise Set
Actual Time
Civil Twilight
Nautical Twilight
Astronomical Twilight
Moon
Length of Visible Light
Length of Day
Tomorrow will be .
, % of the Moon is Illuminated

Today's Extremes

State Highs State Lows

Community

WunderPhotos

Upload Photos

1,955,630 photos uploaded!

WunderBlog® & News

Nearby

Air Quality

  Air Quality AQ Index Pollutant
Not available.

Snow Depth

Station Depth Elevation

Earthquake Activity

City Distance Mag. Time & Date
Minimum magnitude displayed is 2.5.

Coastal Water Temperatures

Place Temperature

Stations

Nearby Weather Stations

Station Location Temp. Windchill Dew Point Humidity Wind Precip. Elev Updated Type
                   

Watches & Warnings

There are currently no watches in effect.